createdAt,value
2018-01-11T00:01:45.091Z,87.80
2018-01-11T00:04:11.844Z,87.80
2018-01-11T00:06:38.763Z,87.80
2018-01-11T00:09:05.528Z,88.10
2018-01-11T00:11:32.253Z,88.20
2018-01-11T00:13:59.059Z,88.40
2018-01-11T00:16:26.559Z,88.70
2018-01-11T00:18:53.360Z,88.60
2018-01-11T00:21:20.082Z,88.80
2018-01-11T00:23:47.606Z,89.20
2018-01-11T00:26:14.346Z,89.10
2018-01-11T00:28:41.075Z,89.30
2018-01-11T00:31:07.884Z,89.50
2018-01-11T00:33:34.566Z,89.70
2018-01-11T00:36:01.326Z,89.80
2018-01-11T00:38:28.063Z,89.80
2018-01-11T00:40:54.811Z,89.80
2018-01-11T00:43:22.303Z,90.00
2018-01-11T00:45:49.039Z,90.00
2018-01-11T00:48:16.566Z,90.10
2018-01-11T00:50:44.071Z,90.10
2018-01-11T00:53:10.821Z,90.10
2018-01-11T00:55:37.571Z,90.20
2018-01-11T00:58:04.319Z,90.10
2018-01-11T01:00:32.563Z,90.10
2018-01-11T01:02:59.375Z,90.00
2018-01-11T01:05:26.122Z,90.10
2018-01-11T01:07:52.886Z,90.00
2018-01-11T01:10:19.598Z,90.10
2018-01-11T01:12:46.356Z,90.50
2018-01-11T01:15:13.094Z,90.10
2018-01-11T01:17:39.838Z,90.10
2018-01-11T01:20:06.578Z,90.10
2018-01-11T01:22:33.355Z,90.20
2018-01-11T01:25:00.099Z,90.30
2018-01-11T01:27:26.827Z,90.30
2018-01-11T01:29:55.079Z,90.40
2018-01-11T01:32:21.986Z,90.40
2018-01-11T01:34:49.503Z,90.40
2018-01-11T01:37:16.251Z,90.40
2018-01-11T01:39:43.031Z,90.40
2018-01-11T01:42:09.779Z,90.80
2018-01-11T01:44:36.651Z,90.50
2018-01-11T01:47:03.374Z,90.50
2018-01-11T01:49:30.280Z,90.50
2018-01-11T01:51:57.772Z,90.40
2018-01-11T01:56:57.599Z,90.50
2018-01-11T01:59:24.403Z,90.60
2018-01-11T02:01:51.200Z,90.60
2018-01-11T02:04:17.893Z,90.80
2018-01-11T02:06:44.681Z,90.80
2018-01-11T02:09:11.414Z,90.80
2018-01-11T02:11:38.169Z,90.80
2018-01-11T02:14:04.928Z,90.80
2018-01-11T02:16:32.436Z,90.90
2018-01-11T02:18:59.244Z,90.90
2018-01-11T02:21:26.009Z,90.90
2018-01-11T02:23:52.734Z,90.80
2018-01-11T02:26:19.470Z,90.50
2018-01-11T02:28:46.224Z,90.40
2018-01-11T02:31:12.960Z,90.40
2018-01-11T02:33:39.708Z,90.40
2018-01-11T02:36:06.456Z,90.30
2018-01-11T02:38:33.216Z,90.30
2018-01-11T02:40:59.942Z,90.50
2018-01-11T02:43:26.724Z,90.30
2018-01-11T02:45:53.417Z,90.10
2018-01-11T02:48:20.170Z,90.10
2018-01-11T02:50:46.940Z,90.10
2018-01-11T02:53:13.807Z,89.90
2018-01-11T02:55:40.528Z,90.20
2018-01-11T02:58:07.274Z,90.10
2018-01-11T03:00:34.042Z,90.20
2018-01-11T03:03:00.763Z,90.20
2018-01-11T03:05:27.523Z,90.20
2018-01-11T03:07:54.259Z,90.20
2018-01-11T03:10:20.981Z,90.20
2018-01-11T03:12:47.723Z,90.30
2018-01-11T03:15:14.457Z,90.30
2018-01-11T03:17:41.199Z,90.30
2018-01-11T03:20:07.929Z,90.10
2018-01-11T03:22:34.738Z,90.00
2018-01-11T03:25:02.243Z,90.50
2018-01-11T03:27:28.980Z,90.20
2018-01-11T03:29:55.696Z,90.10
2018-01-11T03:32:22.464Z,90.20
2018-01-11T03:34:49.242Z,90.20
2018-01-11T03:37:16.760Z,90.40
2018-01-11T03:39:43.508Z,90.40
2018-01-11T03:42:10.263Z,90.50
2018-01-11T03:44:36.996Z,90.50
2018-01-11T03:47:03.730Z,90.50
2018-01-11T03:49:31.978Z,90.50
2018-01-11T03:51:58.702Z,90.50
2018-01-11T03:54:25.446Z,90.60
2018-01-11T03:56:52.187Z,90.60
2018-01-11T03:59:18.919Z,90.60
2018-01-11T04:01:45.675Z,90.70
2018-01-11T04:04:12.599Z,90.60
2018-01-11T04:06:39.333Z,90.50
2018-01-11T04:09:06.082Z,90.40
2018-01-11T04:11:32.827Z,90.30
2018-01-11T04:13:59.567Z,90.30
2018-01-11T04:16:26.320Z,90.30
2018-01-11T04:18:53.053Z,90.30
2018-01-11T04:21:19.783Z,90.40
2018-01-11T04:23:46.523Z,90.40
2018-01-11T04:26:13.275Z,90.40
2018-01-11T04:28:40.004Z,90.40
2018-01-11T04:31:06.756Z,90.50
2018-01-11T04:33:33.564Z,90.50
2018-01-11T04:36:00.309Z,90.50
2018-01-11T04:38:27.036Z,90.50
2018-01-11T04:40:53.786Z,90.50
2018-01-11T04:43:20.526Z,90.40
2018-01-11T04:45:47.371Z,90.20
2018-01-11T04:48:14.945Z,90.20
2018-01-11T04:50:41.713Z,90.10
2018-01-11T04:53:08.463Z,90.20
2018-01-11T04:55:35.973Z,90.20
2018-01-11T04:58:02.723Z,90.20
2018-01-11T05:00:29.462Z,90.20
2018-01-11T05:02:56.204Z,90.20
2018-01-11T05:05:22.972Z,90.20
2018-01-11T05:07:49.742Z,90.50
2018-01-11T05:10:17.219Z,90.20
2018-01-11T05:12:43.956Z,90.10
2018-01-11T05:15:10.698Z,90.30
2018-01-11T05:17:37.467Z,90.30
2018-01-11T05:20:04.206Z,90.20
2018-01-11T05:22:30.944Z,90.20
2018-01-11T05:24:57.691Z,90.20
2018-01-11T05:27:24.422Z,90.10
2018-01-11T05:29:51.161Z,90.00
2018-01-11T05:32:17.911Z,90.10
2018-01-11T05:34:44.671Z,90.00
2018-01-11T05:37:12.202Z,90.00
2018-01-11T05:39:38.968Z,90.00
2018-01-11T05:42:05.714Z,90.00
2018-01-11T05:44:33.238Z,90.00
2018-01-11T05:46:59.996Z,90.00
2018-01-11T05:49:26.722Z,89.80
2018-01-11T05:51:53.476Z,90.00
2018-01-11T05:54:20.227Z,90.20
2018-01-11T05:56:47.781Z,90.10
2018-01-11T05:59:14.510Z,90.10
2018-01-11T06:01:41.241Z,90.00
2018-01-11T06:04:08.120Z,90.10
2018-01-11T06:06:34.816Z,90.10
2018-01-11T06:09:01.580Z,90.40
2018-01-11T06:11:29.074Z,90.70
2018-01-11T06:13:55.814Z,90.60
2018-01-11T06:16:22.552Z,90.30
2018-01-11T06:18:49.296Z,90.40
2018-01-11T06:21:16.027Z,90.50
2018-01-11T06:23:42.827Z,90.50
2018-01-11T06:26:10.332Z,90.50
2018-01-11T06:28:37.070Z,90.50
2018-01-11T06:31:03.811Z,90.50
2018-01-11T06:33:30.543Z,90.70
2018-01-11T06:35:57.283Z,90.90
2018-01-11T06:38:24.022Z,91.10
2018-01-11T06:40:50.768Z,91.10
2018-01-11T06:43:17.483Z,91.10
2018-01-11T06:45:44.303Z,91.10
2018-01-11T06:48:11.008Z,91.10
2018-01-11T06:50:37.778Z,91.10
2018-01-11T06:53:04.497Z,91.00
2018-01-11T06:55:32.264Z,91.00
2018-01-11T06:57:58.978Z,90.90
2018-01-11T07:00:25.723Z,90.50
2018-01-11T07:02:52.522Z,90.50
2018-01-11T07:05:19.310Z,90.50
2018-01-11T07:07:46.058Z,90.60
2018-01-11T07:10:12.798Z,90.70
2018-01-11T07:12:39.539Z,90.70
2018-01-11T07:15:06.268Z,90.70
2018-01-11T07:17:33.779Z,91.00
2018-01-11T07:20:00.512Z,91.00
2018-01-11T07:22:27.250Z,90.90
2018-01-11T07:24:53.980Z,90.80
2018-01-11T07:27:20.744Z,90.60
2018-01-11T07:29:47.490Z,90.70
2018-01-11T07:32:14.195Z,90.80
2018-01-11T07:34:40.942Z,90.80
2018-01-11T07:37:07.671Z,90.90
2018-01-11T07:39:35.201Z,91.00
2018-01-11T07:42:01.946Z,91.00
2018-01-11T07:44:29.455Z,91.00
2018-01-11T07:46:56.201Z,91.00
2018-01-11T07:49:22.914Z,91.00
2018-01-11T07:51:49.674Z,91.00
2018-01-11T07:54:16.416Z,90.90
2018-01-11T07:56:43.170Z,90.70
2018-01-11T07:59:09.897Z,90.70
2018-01-11T08:01:36.645Z,90.70
2018-01-11T08:04:03.383Z,90.60
2018-01-11T08:06:30.139Z,90.70
2018-01-11T08:08:56.888Z,90.60
2018-01-11T08:11:23.632Z,90.60
2018-01-11T08:13:50.374Z,90.60
2018-01-11T08:16:17.897Z,90.60
2018-01-11T08:18:44.648Z,90.60
2018-01-11T08:21:11.381Z,90.60
2018-01-11T08:23:38.147Z,90.60
2018-01-11T08:26:04.869Z,90.70
2018-01-11T08:28:31.612Z,90.70
2018-01-11T08:30:58.357Z,90.70
2018-01-11T08:33:25.080Z,90.80
2018-01-11T08:35:51.887Z,90.80
2018-01-11T08:38:18.580Z,90.70
2018-01-11T08:40:45.341Z,90.70
2018-01-11T08:43:12.093Z,90.60
2018-01-11T08:45:38.922Z,90.80
2018-01-11T08:48:05.630Z,90.80
2018-01-11T08:50:32.387Z,90.80
2018-01-11T08:53:00.033Z,90.60
2018-01-11T08:55:26.755Z,90.60
2018-01-11T08:57:53.590Z,90.40
2018-01-11T09:00:20.333Z,90.40
2018-01-11T09:02:47.076Z,90.30
2018-01-11T09:05:13.837Z,90.30
2018-01-11T09:07:40.575Z,90.30
2018-01-11T09:10:08.158Z,90.20
2018-01-11T09:12:34.858Z,90.20
2018-01-11T09:15:01.598Z,90.20
2018-01-11T09:17:29.904Z,89.50
2018-01-11T09:19:56.642Z,89.40
2018-01-11T09:22:24.126Z,89.50
2018-01-11T09:24:50.888Z,89.40
2018-01-11T09:27:17.630Z,89.10
2018-01-11T09:29:44.363Z,89.20
2018-01-11T09:32:11.134Z,89.00
2018-01-11T09:34:37.866Z,88.70
2018-01-11T09:37:04.623Z,89.80
2018-01-11T09:39:32.120Z,88.90
2018-01-11T09:41:58.901Z,88.90
2018-01-11T09:44:26.363Z,89.20
2018-01-11T09:46:53.116Z,89.10
2018-01-11T09:49:19.832Z,89.10
2018-01-11T09:51:46.588Z,88.80
2018-01-11T09:54:13.310Z,88.60
2018-01-11T09:56:40.052Z,88.40
2018-01-11T09:59:06.807Z,88.10
2018-01-11T10:01:34.303Z,87.70
2018-01-11T10:04:01.043Z,87.70
2018-01-11T10:06:27.775Z,87.90
2018-01-11T10:08:54.521Z,87.80
2018-01-11T10:11:21.336Z,87.50
2018-01-11T10:13:48.058Z,86.70
2018-01-11T10:16:15.551Z,87.00
2018-01-11T10:18:42.300Z,86.90
2018-01-11T10:21:09.047Z,86.50
2018-01-11T10:23:35.794Z,86.20
2018-01-11T10:26:02.528Z,85.40
2018-01-11T10:28:29.268Z,84.90
2018-01-11T10:30:56.159Z,84.10
2018-01-11T10:33:23.724Z,84.20
2018-01-11T10:35:50.495Z,84.20
2018-01-11T10:38:17.243Z,84.60
2018-01-11T10:40:43.998Z,84.30
2018-01-11T10:43:10.734Z,83.90
2018-01-11T10:45:37.479Z,82.70
2018-01-11T10:48:04.215Z,82.70
2018-01-11T10:50:30.962Z,84.60
2018-01-11T10:52:57.715Z,83.10
2018-01-11T10:55:25.243Z,82.70
2018-01-11T10:57:51.976Z,82.70
2018-01-11T11:00:18.719Z,83.20
2018-01-11T11:02:45.474Z,82.80
2018-01-11T11:05:12.298Z,82.70
2018-01-11T11:07:39.041Z,83.90
2018-01-11T11:10:05.770Z,84.30
2018-01-11T11:12:32.552Z,84.10
2018-01-11T11:15:00.056Z,85.00
2018-01-11T11:17:26.796Z,84.20
2018-01-11T11:19:53.530Z,84.00
2018-01-11T11:22:20.254Z,81.80
2018-01-11T11:24:47.004Z,81.50
2018-01-11T11:27:13.758Z,81.50
2018-01-11T11:29:40.586Z,81.60
2018-01-11T11:32:08.795Z,81.80
2018-01-11T11:34:36.293Z,80.90
2018-01-11T11:37:03.055Z,80.80
2018-01-11T11:39:29.774Z,80.10
2018-01-11T11:41:56.510Z,80.50
2018-01-11T11:44:24.010Z,81.90
2018-01-11T11:46:50.765Z,81.80
2018-01-11T11:49:17.514Z,81.50
2018-01-11T11:51:45.020Z,80.50
2018-01-11T11:54:11.740Z,80.50
2018-01-11T11:56:38.482Z,79.80
2018-01-11T11:59:05.220Z,79.20
2018-01-11T12:01:31.959Z,78.70
2018-01-11T12:03:58.845Z,79.00
2018-01-11T12:06:25.595Z,78.80
2018-01-11T12:08:52.584Z,78.50
2018-01-11T12:11:19.294Z,78.50
2018-01-11T12:13:46.033Z,78.50
2018-01-11T12:16:12.779Z,78.70
2018-01-11T12:18:40.270Z,76.90
2018-01-11T12:21:06.999Z,76.70
2018-01-11T12:23:33.753Z,77.50
2018-01-11T12:26:00.497Z,77.70
2018-01-11T12:28:27.243Z,78.00
2018-01-11T12:30:54.028Z,77.80
2018-01-11T12:33:20.784Z,77.30
2018-01-11T12:35:48.303Z,74.90
2018-01-11T12:38:15.056Z,74.70
2018-01-11T12:40:41.775Z,74.90
2018-01-11T12:43:08.551Z,74.20
2018-01-11T12:45:36.193Z,75.10
2018-01-11T12:48:03.062Z,75.10
2018-01-11T12:50:30.617Z,76.20
2018-01-11T12:52:58.327Z,76.10
2018-01-11T12:55:25.063Z,76.00
2018-01-11T12:57:51.806Z,76.40
2018-01-11T13:00:18.565Z,76.90
2018-01-11T13:02:45.302Z,77.60
2018-01-11T13:05:12.044Z,77.90
2018-01-11T13:07:38.780Z,76.50
2018-01-11T13:10:05.517Z,76.70
2018-01-11T13:12:32.287Z,77.10
2018-01-11T13:14:59.798Z,77.60
2018-01-11T13:17:26.535Z,77.50
2018-01-11T13:19:53.299Z,76.10
2018-01-11T13:22:20.042Z,76.00
2018-01-11T13:24:46.766Z,76.80
2018-01-11T13:27:13.574Z,76.30
2018-01-11T13:29:40.469Z,75.30
2018-01-11T13:32:08.016Z,75.30
2018-01-11T13:34:34.750Z,75.20
2018-01-11T13:37:01.502Z,75.10
2018-01-11T13:39:28.224Z,74.60
2018-01-11T13:41:55.071Z,74.50
2018-01-11T13:44:21.802Z,74.80
2018-01-11T13:46:48.703Z,74.80
2018-01-11T13:49:15.438Z,75.40
2018-01-11T13:51:42.182Z,74.80
2018-01-11T13:54:08.909Z,75.10
2018-01-11T13:56:35.659Z,74.60
2018-01-11T13:59:02.426Z,74.50
2018-01-11T14:01:29.329Z,74.90
2018-01-11T14:03:56.088Z,74.30
2018-01-11T14:06:22.815Z,74.60
2018-01-11T14:08:49.554Z,74.90
2018-01-11T14:11:16.292Z,74.70
2018-01-11T14:13:43.023Z,75.70
2018-01-11T14:16:09.790Z,76.70
2018-01-11T14:18:36.532Z,76.70
2018-01-11T14:21:03.256Z,77.60
2018-01-11T14:23:30.037Z,78.50
2018-01-11T14:25:56.742Z,79.00
2018-01-11T14:28:23.517Z,78.90
2018-01-11T14:30:50.261Z,79.30
2018-01-11T14:33:16.979Z,79.30
2018-01-11T14:35:43.759Z,79.30
2018-01-11T14:38:11.309Z,79.60
2018-01-11T14:40:38.809Z,79.50
2018-01-11T14:43:05.551Z,79.50
2018-01-11T14:45:32.294Z,78.60
2018-01-11T14:47:59.029Z,77.90
2018-01-11T14:50:25.773Z,77.90
2018-01-11T14:52:52.523Z,78.50
2018-01-11T14:55:19.232Z,78.70
2018-01-11T14:57:45.997Z,79.00
2018-01-11T15:00:12.740Z,79.50
2018-01-11T15:02:39.476Z,79.80
2018-01-11T15:05:06.208Z,80.10
2018-01-11T15:07:33.020Z,80.10
2018-01-11T15:09:59.716Z,80.00
2018-01-11T15:12:26.497Z,81.00
2018-01-11T15:14:54.002Z,80.90
2018-01-11T15:17:20.755Z,81.70
2018-01-11T15:19:47.499Z,81.00
2018-01-11T15:22:14.235Z,81.40
2018-01-11T15:24:41.021Z,81.70
2018-01-11T15:27:07.770Z,82.00
2018-01-11T15:29:34.507Z,82.30
2018-01-11T15:32:01.329Z,82.30
2018-01-11T15:34:28.047Z,82.20
2018-01-11T15:36:54.828Z,83.20
2018-01-11T15:39:21.589Z,82.90
2018-01-11T15:41:48.385Z,83.20
2018-01-11T15:44:15.083Z,83.40
2018-01-11T15:46:41.831Z,83.90
2018-01-11T15:49:09.423Z,84.00
2018-01-11T15:51:36.917Z,84.20
2018-01-11T15:54:03.652Z,84.20
2018-01-11T15:56:30.408Z,84.20
2018-01-11T15:58:57.179Z,84.50
2018-01-11T16:01:24.693Z,84.20
2018-01-11T16:03:51.598Z,84.20
2018-01-11T16:06:18.352Z,84.10
2018-01-11T16:08:45.076Z,84.00
2018-01-11T16:11:11.819Z,84.10
2018-01-11T16:13:38.559Z,84.10
2018-01-11T16:16:05.290Z,84.30
2018-01-11T16:18:32.810Z,84.30
2018-01-11T16:20:59.548Z,84.30
2018-01-11T16:23:26.303Z,84.30
2018-01-11T16:25:53.795Z,85.60
2018-01-11T16:28:20.735Z,84.70
2018-01-11T16:30:48.227Z,84.70
2018-01-11T16:33:14.958Z,84.70
2018-01-11T16:35:41.718Z,84.60
2018-01-11T16:38:08.474Z,84.60
2018-01-11T16:40:35.982Z,84.20
2018-01-11T16:43:03.862Z,84.20
2018-01-11T16:45:30.625Z,84.10
2018-01-11T16:47:57.443Z,84.00
2018-01-11T16:50:24.101Z,84.00
2018-01-11T16:52:50.856Z,84.60
2018-01-11T16:55:17.599Z,83.90
2018-01-11T16:57:45.178Z,83.90
2018-01-11T17:00:12.695Z,83.80
2018-01-11T17:02:39.435Z,83.70
2018-01-11T17:05:06.180Z,83.80
2018-01-11T17:07:32.939Z,83.90
2018-01-11T17:10:00.536Z,84.20
2018-01-11T17:12:27.352Z,84.10
2018-01-11T17:14:54.345Z,84.30
2018-01-11T17:17:21.103Z,84.70
2018-01-11T17:19:47.831Z,84.30
2018-01-11T17:22:14.570Z,84.50
2018-01-11T17:24:41.303Z,84.50
2018-01-11T17:27:08.060Z,84.60
2018-01-11T17:29:34.831Z,84.70
2018-01-11T17:32:01.582Z,84.80
2018-01-11T17:34:28.317Z,84.80
2018-01-11T17:36:55.060Z,85.00
2018-01-11T17:39:21.808Z,85.10
2018-01-11T17:41:48.544Z,85.30
2018-01-11T17:44:15.286Z,85.30
2018-01-11T17:46:42.052Z,85.60
2018-01-11T17:49:08.918Z,85.80
2018-01-11T17:51:35.694Z,85.70
2018-01-11T17:54:02.424Z,85.70
2018-01-11T17:56:29.178Z,85.90
2018-01-11T17:58:55.920Z,86.00
2018-01-11T18:01:22.675Z,86.10
2018-01-11T18:03:49.428Z,86.00
2018-01-11T18:06:16.213Z,86.10
2018-01-11T18:08:43.718Z,86.00
2018-01-11T18:11:10.448Z,85.90
2018-01-11T18:13:37.204Z,86.00
2018-01-11T18:16:03.973Z,86.10
2018-01-11T18:18:30.726Z,86.10
2018-01-11T18:20:58.219Z,85.90
2018-01-11T18:23:24.980Z,85.80
2018-01-11T18:25:51.766Z,85.80
2018-01-11T18:28:18.516Z,85.50
2018-01-11T18:30:45.254Z,85.30
2018-01-11T18:33:12.035Z,85.40
2018-01-11T18:35:38.779Z,85.30
2018-01-11T18:38:05.565Z,85.40
2018-01-11T18:40:32.326Z,85.30
2018-01-11T18:42:59.051Z,84.60
2018-01-11T18:45:25.787Z,85.10
2018-01-11T18:47:52.543Z,85.10
2018-01-11T18:50:19.286Z,85.10
2018-01-11T18:52:46.151Z,85.20
2018-01-11T18:55:12.884Z,85.50
2018-01-11T18:57:39.628Z,85.70
2018-01-11T19:00:06.386Z,86.20
2018-01-11T19:02:33.162Z,86.60
2018-01-11T19:05:00.646Z,87.20
2018-01-11T19:07:27.416Z,87.10
2018-01-11T19:09:54.176Z,87.70
2018-01-11T19:12:21.700Z,88.00
2018-01-11T19:14:48.448Z,87.80
2018-01-11T19:17:15.210Z,88.40
2018-01-11T19:19:41.943Z,88.70
2018-01-11T19:22:08.707Z,89.00
2018-01-11T19:24:35.463Z,89.20
2018-01-11T19:27:02.242Z,89.30
2018-01-11T19:29:28.976Z,89.50
2018-01-11T19:31:55.705Z,89.20
2018-01-11T19:34:22.460Z,89.70
2018-01-11T19:36:49.232Z,89.90
2018-01-11T19:39:16.013Z,90.00
2018-01-11T19:41:42.772Z,90.10
2018-01-11T19:44:09.534Z,90.00
2018-01-11T19:46:36.275Z,90.00
2018-01-11T19:49:03.863Z,90.10
2018-01-11T19:51:30.663Z,90.10
2018-01-11T19:53:57.378Z,90.30
2018-01-11T19:56:24.122Z,90.10
2018-01-11T19:58:50.854Z,90.20
2018-01-11T20:01:17.620Z,90.30
2018-01-11T20:03:44.379Z,90.20
2018-01-11T20:06:40.580Z,90.30
2018-01-11T20:09:08.959Z,90.30
2018-01-11T20:11:36.492Z,90.30
2018-01-11T20:14:04.014Z,90.30
2018-01-11T20:16:31.572Z,90.20
2018-01-11T20:18:59.137Z,90.00
2018-01-11T20:21:26.696Z,90.00
2018-01-11T20:23:55.000Z,89.90
2018-01-11T20:26:22.568Z,89.80
2018-01-11T20:28:50.143Z,89.70
2018-01-11T20:31:17.660Z,89.20
2018-01-11T20:33:45.978Z,89.00
2018-01-11T20:36:14.160Z,88.80
2018-01-11T20:38:42.450Z,88.80
2018-01-11T20:41:11.508Z,88.60
2018-01-11T20:43:39.783Z,88.50
2018-01-11T20:46:08.059Z,88.50
2018-01-11T20:48:36.353Z,88.70
2018-01-11T20:51:04.644Z,88.80
2018-01-11T20:53:32.905Z,88.80
2018-01-11T20:56:01.378Z,89.20
2018-01-11T20:58:29.649Z,89.40
2018-01-11T21:00:57.972Z,89.60
2018-01-11T21:03:26.237Z,89.80
2018-01-11T21:05:54.523Z,89.80
2018-01-11T21:08:23.548Z,89.90
2018-01-11T21:10:51.844Z,89.80
2018-01-11T21:13:20.119Z,89.60
2018-01-11T21:15:48.454Z,90.00
2018-01-11T21:18:16.762Z,90.30
2018-01-11T21:20:45.161Z,90.00
2018-01-11T21:23:13.411Z,89.90
2018-01-11T21:25:41.641Z,89.80
2018-01-11T21:28:10.739Z,89.60
2018-01-11T21:30:39.019Z,89.50
2018-01-11T21:33:08.059Z,89.20
2018-01-11T21:35:36.328Z,89.20
2018-01-11T21:38:04.629Z,89.20
2018-01-11T21:40:34.036Z,89.10
2018-01-11T21:43:02.424Z,89.20
2018-01-11T21:45:30.652Z,88.90
2018-01-11T21:47:58.973Z,88.70
2018-01-11T21:50:27.219Z,88.70
2018-01-11T21:52:55.479Z,88.30
2018-01-11T21:55:23.764Z,88.30
2018-01-11T21:57:52.038Z,88.20
2018-01-11T22:00:20.300Z,88.20
2018-01-11T22:02:48.561Z,88.30
2018-01-11T22:05:16.838Z,88.10
2018-01-11T22:07:45.114Z,88.10
2018-01-11T22:10:13.399Z,88.10
2018-01-11T22:12:41.664Z,87.90
2018-01-11T22:15:09.955Z,87.90
2018-01-11T22:17:38.182Z,87.70
2018-01-11T22:20:07.199Z,88.70
2018-01-11T22:22:35.474Z,87.80
2018-01-11T22:25:03.813Z,87.70
2018-01-11T22:27:32.064Z,87.50
2018-01-11T22:30:00.357Z,87.60
2018-01-11T22:32:28.596Z,87.30
2018-01-11T22:34:56.892Z,87.30
2018-01-11T22:37:25.198Z,87.40
2018-01-11T22:39:54.237Z,87.10
2018-01-11T22:42:22.497Z,87.10
2018-01-11T22:44:50.866Z,87.00
2018-01-11T22:47:19.162Z,87.00
2018-01-11T22:49:47.415Z,87.00
2018-01-11T22:52:15.751Z,87.00
2018-01-11T22:54:44.043Z,86.80
2018-01-11T22:57:13.071Z,86.70
2018-01-11T22:59:41.330Z,86.60
2018-01-11T23:02:09.586Z,86.60
2018-01-11T23:04:38.638Z,86.60
2018-01-11T23:07:06.971Z,86.50
2018-01-11T23:09:35.220Z,86.60
2018-01-11T23:12:03.495Z,86.50
2018-01-11T23:14:31.766Z,86.20
2018-01-11T23:17:00.025Z,86.60
2018-01-11T23:19:28.267Z,86.40
2018-01-11T23:21:56.525Z,86.20
2018-01-11T23:24:24.771Z,86.50
2018-01-11T23:26:53.857Z,86.70
2018-01-11T23:29:22.078Z,86.50
2018-01-11T23:31:50.337Z,86.40
2018-01-11T23:34:18.615Z,86.70
2018-01-11T23:36:46.882Z,86.80
2018-01-11T23:39:15.130Z,86.90
2018-01-11T23:41:43.419Z,86.90
2018-01-11T23:44:12.445Z,87.10
2018-01-11T23:46:40.742Z,87.00
2018-01-11T23:49:09.001Z,87.10
2018-01-11T23:51:37.284Z,87.10
2018-01-11T23:54:05.521Z,87.10
2018-01-11T23:56:34.683Z,87.20
2018-01-11T23:59:02.940Z,87.10
